Hickory Flat, Arkansas
Current Conditions -  °F | °C
As of 2:56 AM on Monday 20 Oct 2014 (Local Time) from KSRC Reporting Station
Clear Clear  
Wind Chill: 45°   Ceiling: Unl
Heat Index: 45°   Visibility: 10mi
Dew Point: 45°   Wind: 0mph
Humidity: 100%   Direction: NA
Pressure: 30.09"   Gusts: NA
Location:  35.4331°N, 91.7663°W
Report Text: KSRC 200756Z AUTO 00000KT 10SM CLR 07/07 A3009 RMK AO2 SLP195 T00720072 TSNO
Loading
Personal Weather Stations






























Interactive Weather Map
Tropical Storm Tracking
New forecast layout! Learn more

10-Day Weather Forecast

Advertisements
Track Severe Weather on mobile